TAF Text Data
IDs:
Format:
Raw Decoded Include METAR

Data at: 1048 UTC 07 Dec 2022

VVNB 071030Z 36005KT 250V040 7000 FEW036 OVC049 17/12 Q1017 NOSIG

TAF VVNB 070500Z 0706/0806 01009KT 8000 SCT027 BKN040
  BECMG 0718/0720 3500 BR SCT010 BKN040
  BECMG 0801/0802 6000 NSW SCT015 BKN040